createdAt,value
2022-10-03T00:02:36.564Z,2.23
2022-10-03T00:07:43.346Z,2.83
2022-10-03T00:13:19.885Z,2.90
2022-10-03T00:18:35.749Z,2.47
2022-10-03T00:23:43.675Z,2.93
2022-10-03T00:29:07.094Z,2.30
2022-10-03T00:34:33.202Z,3.10
2022-10-03T00:39:56.765Z,2.97
2022-10-03T00:45:34.014Z,2.90
2022-10-03T00:51:01.462Z,3.40
2022-10-03T00:56:42.905Z,3.50
2022-10-03T01:01:48.899Z,2.80
2022-10-03T01:07:10.984Z,3.13
2022-10-03T01:12:35.546Z,4.43
2022-10-03T01:18:10.046Z,4.70
2022-10-03T01:23:34.844Z,4.63
2022-10-03T01:29:02.486Z,4.30
2022-10-03T01:34:18.754Z,4.53
2022-10-03T01:39:58.893Z,4.20
2022-10-03T01:45:15.983Z,3.87
2022-10-03T01:50:37.696Z,3.90
2022-10-03T01:56:05.105Z,4.03
2022-10-03T02:01:15.976Z,3.97
2022-10-03T02:06:28.163Z,3.57
2022-10-03T02:11:41.003Z,3.60
2022-10-03T02:17:09.324Z,3.27
2022-10-03T02:22:56.744Z,3.30
2022-10-03T02:28:12.144Z,3.00
2022-10-03T02:33:21.149Z,3.00
2022-10-03T02:38:45.686Z,2.13
2022-10-03T02:44:16.045Z,2.70
2022-10-03T02:49:48.527Z,2.33
2022-10-03T02:54:58.626Z,2.00
2022-10-03T03:00:09.865Z,1.90
2022-10-03T03:05:28.123Z,2.30
2022-10-03T03:10:45.106Z,2.00
2022-10-03T03:16:21.268Z,1.87
2022-10-03T03:21:40.383Z,1.87
2022-10-03T03:26:46.943Z,1.80
2022-10-03T03:32:39.386Z,1.63
2022-10-03T03:38:03.634Z,2.53
2022-10-03T03:43:38.036Z,1.20
2022-10-03T03:49:02.409Z,1.40
2022-10-03T03:54:36.040Z,1.50
2022-10-03T03:59:50.765Z,1.30
2022-10-03T04:05:27.129Z,1.30
2022-10-03T04:10:53.978Z,1.33
2022-10-03T04:16:46.003Z,1.20
2022-10-03T04:21:57.703Z,1.37
2022-10-03T04:27:43.170Z,1.37
2022-10-03T04:33:02.220Z,1.43
2022-10-03T04:38:44.950Z,1.60
2022-10-03T04:44:06.726Z,1.43
2022-10-03T04:49:24.631Z,1.83
2022-10-03T04:54:31.660Z,0.93
2022-10-03T04:59:59.929Z,1.20
2022-10-03T05:05:28.072Z,0.80
2022-10-03T05:10:40.657Z,1.00
2022-10-03T05:16:08.246Z,1.30
2022-10-03T05:21:17.250Z,1.27
2022-10-03T05:26:50.151Z,1.30
2022-10-03T05:32:00.295Z,1.50
2022-10-03T05:37:25.121Z,1.30
2022-10-03T05:42:52.340Z,1.37
2022-10-03T05:48:14.103Z,1.23
2022-10-03T05:53:29.651Z,1.17
2022-10-03T05:58:54.932Z,1.30
2022-10-03T06:04:05.923Z,1.27
2022-10-03T06:09:35.962Z,1.20
2022-10-03T06:14:45.208Z,2.13
2022-10-03T06:19:51.690Z,1.70
2022-10-03T06:25:22.584Z,1.60
2022-10-03T06:30:47.273Z,1.67
2022-10-03T06:36:24.484Z,1.80
2022-10-03T06:41:40.057Z,2.07
2022-10-03T06:47:23.690Z,2.20
2022-10-03T06:53:03.731Z,2.20
2022-10-03T06:58:25.465Z,2.87
2022-10-03T07:03:41.338Z,2.07
2022-10-03T07:08:45.928Z,2.30
2022-10-03T07:14:19.099Z,2.87
2022-10-03T07:19:46.158Z,2.90
2022-10-03T07:25:21.190Z,3.27
2022-10-03T07:30:28.275Z,3.10
2022-10-03T07:36:31.630Z,2.93
2022-10-03T07:42:01.070Z,3.00
2022-10-03T07:47:42.291Z,3.37
2022-10-03T07:53:10.757Z,3.60
2022-10-03T07:58:34.593Z,3.80
2022-10-03T08:03:55.640Z,3.17
2022-10-03T08:09:17.501Z,3.20
2022-10-03T08:14:50.108Z,3.60
2022-10-03T08:20:08.011Z,3.00
2022-10-03T08:25:32.344Z,3.57
2022-10-03T08:30:54.326Z,3.80
2022-10-03T08:36:39.275Z,3.83
2022-10-03T08:42:14.732Z,3.70
2022-10-03T08:48:06.016Z,4.20
2022-10-03T08:53:37.504Z,3.97
2022-10-03T08:58:44.065Z,3.77
2022-10-03T09:04:10.410Z,4.40
2022-10-03T09:09:42.848Z,4.00
2022-10-03T09:14:48.659Z,4.20
2022-10-03T09:20:16.995Z,3.50
2022-10-03T09:25:45.482Z,3.50
2022-10-03T09:31:10.190Z,2.40
2022-10-03T09:36:32.509Z,2.10
2022-10-03T09:42:02.232Z,1.60
2022-10-03T09:47:23.509Z,2.03
2022-10-03T09:52:38.742Z,1.90
2022-10-03T09:58:06.970Z,2.53
2022-10-03T10:03:28.223Z,1.70
2022-10-03T10:08:40.248Z,1.80
2022-10-03T10:14:10.503Z,1.70
2022-10-03T10:19:40.129Z,2.00
2022-10-03T10:25:25.493Z,1.90
2022-10-03T10:31:02.333Z,1.90
2022-10-03T10:36:43.918Z,2.63
2022-10-03T10:42:02.198Z,3.00
2022-10-03T10:47:25.047Z,3.33
2022-10-03T10:52:49.680Z,4.00
2022-10-03T10:58:30.288Z,3.27
2022-10-03T11:03:55.064Z,3.73
2022-10-03T11:09:22.569Z,3.60
2022-10-03T11:15:00.213Z,3.50
2022-10-03T11:20:37.402Z,3.67
2022-10-03T11:25:54.448Z,2.77
2022-10-03T11:31:20.310Z,3.00
2022-10-03T11:36:35.221Z,2.50
2022-10-03T11:42:02.810Z,2.60
2022-10-03T11:47:35.561Z,2.53
2022-10-03T11:53:07.368Z,2.47
2022-10-03T11:58:34.525Z,1.93
2022-10-03T12:03:49.641Z,1.77
2022-10-03T12:09:23.297Z,1.90
2022-10-03T12:14:31.905Z,1.83
2022-10-03T12:19:43.563Z,2.17
2022-10-03T12:24:48.300Z,2.10
2022-10-03T12:30:03.110Z,1.90
2022-10-03T12:35:26.139Z,1.80
2022-10-03T12:40:44.398Z,1.63
2022-10-03T12:46:00.645Z,1.73
2022-10-03T12:51:37.340Z,1.50
2022-10-03T12:56:56.717Z,1.43
2022-10-03T13:02:45.571Z,1.80
2022-10-03T13:08:02.565Z,1.70
2022-10-03T13:13:32.926Z,1.77
2022-10-03T13:18:59.541Z,1.77
2022-10-03T13:24:13.888Z,2.07
2022-10-03T13:29:30.696Z,1.93
2022-10-03T13:34:56.051Z,2.50
2022-10-03T13:40:09.614Z,2.87
2022-10-03T13:45:25.830Z,2.23
2022-10-03T13:50:59.300Z,2.33
2022-10-03T13:56:31.030Z,2.77
2022-10-03T14:01:49.143Z,3.20
2022-10-03T14:07:02.844Z,2.70
2022-10-03T14:12:51.056Z,2.53
2022-10-03T14:18:00.840Z,2.57
2022-10-03T14:23:22.748Z,3.00
2022-10-03T14:28:47.107Z,2.37
2022-10-03T14:34:09.407Z,3.30
2022-10-03T14:39:38.621Z,3.10
2022-10-03T14:44:46.436Z,3.13
2022-10-03T14:49:59.578Z,3.13
2022-10-03T14:55:14.056Z,3.27
2022-10-03T15:00:29.497Z,3.50
2022-10-03T15:05:36.839Z,3.60
2022-10-03T15:10:41.157Z,3.37
2022-10-03T15:15:48.183Z,3.50
2022-10-03T15:20:55.189Z,3.70
2022-10-03T15:25:59.360Z,3.77
2022-10-03T15:31:15.162Z,3.13
2022-10-03T15:36:43.169Z,3.73
2022-10-03T15:42:15.769Z,3.53
2022-10-03T15:47:23.559Z,4.00
2022-10-03T15:52:43.299Z,3.50
2022-10-03T15:57:53.424Z,3.83
2022-10-03T16:03:37.520Z,4.40
2022-10-03T16:09:00.000Z,4.00
2022-10-03T16:14:18.853Z,4.27
2022-10-03T16:19:55.797Z,4.23
2022-10-03T16:25:19.116Z,4.10
2022-10-03T16:30:26.980Z,3.87
2022-10-03T16:35:44.931Z,3.70
2022-10-03T16:40:55.659Z,3.03
2022-10-03T16:46:04.441Z,2.63
2022-10-03T16:51:33.360Z,2.60
2022-10-03T16:56:45.329Z,2.57
2022-10-03T17:01:57.064Z,2.57
2022-10-03T17:07:04.799Z,2.00
2022-10-03T17:12:15.161Z,2.63
2022-10-03T17:17:29.610Z,2.33
2022-10-03T17:22:45.350Z,3.03
2022-10-03T17:27:51.172Z,3.10
2022-10-03T17:33:01.110Z,3.20
2022-10-03T17:38:47.750Z,3.13
2022-10-03T17:43:59.371Z,3.63
2022-10-03T17:49:32.165Z,4.07
2022-10-03T17:54:39.850Z,3.93
2022-10-03T17:59:55.970Z,3.80
2022-10-03T18:05:17.320Z,4.37
2022-10-03T18:10:34.019Z,4.23
2022-10-03T18:15:44.019Z,4.10
2022-10-03T18:21:16.410Z,3.80
2022-10-03T18:26:43.099Z,4.27
2022-10-03T18:31:52.827Z,3.43
2022-10-03T18:36:57.784Z,4.30
2022-10-03T18:42:03.370Z,5.60
2022-10-03T18:47:34.470Z,4.40
2022-10-03T18:52:47.147Z,4.80
2022-10-03T18:58:02.168Z,4.60
2022-10-03T19:03:19.650Z,5.20
2022-10-03T19:08:39.329Z,4.70
2022-10-03T19:13:55.026Z,3.60
2022-10-03T19:19:16.232Z,4.03
2022-10-03T19:24:56.587Z,4.43
2022-10-03T19:29:58.480Z,3.77
2022-10-03T19:35:06.071Z,3.90
2022-10-03T19:40:45.678Z,3.23
2022-10-03T19:45:54.785Z,4.17
2022-10-03T19:51:21.463Z,3.50
2022-10-03T19:56:34.568Z,4.07
2022-10-03T20:01:48.784Z,4.27
2022-10-03T20:06:54.258Z,4.70
2022-10-03T20:12:12.396Z,4.73
2022-10-03T20:17:24.168Z,4.20
2022-10-03T20:22:31.718Z,4.60
2022-10-03T20:27:46.660Z,3.10
2022-10-03T20:32:51.570Z,3.30
2022-10-03T20:38:13.588Z,3.40
2022-10-03T20:43:20.672Z,3.10
2022-10-03T20:48:29.574Z,3.07
2022-10-03T20:53:33.552Z,2.87
2022-10-03T20:58:50.983Z,2.80
2022-10-03T21:04:19.995Z,3.00
2022-10-03T21:09:51.169Z,2.83
2022-10-03T21:15:03.362Z,2.73
2022-10-03T21:20:12.319Z,2.67
2022-10-03T21:25:29.709Z,3.00
2022-10-03T21:30:52.472Z,2.60
2022-10-03T21:36:15.060Z,2.57
2022-10-03T21:41:58.108Z,3.23
2022-10-03T21:47:42.740Z,2.90
2022-10-03T21:52:59.921Z,2.60
2022-10-03T21:58:24.670Z,2.47
2022-10-03T22:03:35.850Z,2.47
2022-10-03T22:08:43.700Z,2.97
2022-10-03T22:14:16.942Z,2.90
2022-10-03T22:19:27.777Z,2.60
2022-10-03T22:24:54.839Z,2.37
2022-10-03T22:30:09.273Z,2.83
2022-10-03T22:35:40.509Z,2.83
2022-10-03T22:40:46.441Z,2.97
2022-10-03T22:45:52.515Z,3.27
2022-10-03T22:50:57.131Z,3.30
2022-10-03T22:56:20.980Z,3.10
2022-10-03T23:01:25.090Z,3.50
2022-10-03T23:07:09.330Z,2.83
2022-10-03T23:12:13.220Z,2.90
2022-10-03T23:17:47.758Z,2.93
2022-10-03T23:22:56.450Z,3.50
2022-10-03T23:28:12.022Z,3.73
2022-10-03T23:33:39.309Z,3.40
2022-10-03T23:38:42.438Z,3.77
2022-10-03T23:43:45.524Z,3.60
2022-10-03T23:49:00.779Z,2.93
2022-10-03T23:54:06.630Z,1.97
2022-10-03T23:59:15.595Z,2.60
